Time;durP1;ratioP1;P1;durP2;ratioP2;P2;SDS_P1;SDS_P2;PMS_P1;PMS_P2;Temp;Humidity;BMP_temperature;BMP_pressure;BME280_temperature;BME280_humidity;BME280_pressure;Samples;Min_cycle;Max_cycle;Signal;HPM_P1;HPM_P2
2022/04/22 05:32:38;;;;;;;14.48;10.20;;;;;;;9.08;75.30;96894.84;5116163;27;20366;-59
2022/04/22 05:35:05;;;;;;;15.10;10.77;;;;;;;9.39;75.22;96925.78;5075802;28;20035;-59
2022/04/22 05:37:49;;;;;;;13.90;10.57;;;;;;;9.48;74.41;96932.50;5082073;28;20028;-60
2022/04/22 05:40:20;;;;;;;14.23;10.07;;;;;;;9.41;73.80;96923.81;5091760;28;20051;-59
2022/04/22 05:42:46;;;;;;;15.18;10.00;;;;;;;9.54;73.27;96936.97;5080904;28;20054;-61
2022/04/22 05:45:12;;;;;;;13.35;10.40;;;;;;;9.56;72.94;96936.78;5098235;28;20093;-61
2022/04/22 05:47:38;;;;;;;12.77;9.38;;;;;;;9.49;72.77;96930.72;5078759;28;20088;-59
2022/04/22 05:50:05;;;;;;;14.30;10.80;;;;;;;9.40;72.60;96924.78;5081914;28;20028;-60
2022/04/22 05:52:35;;;;;;;15.10;10.82;;;;;;;9.50;72.24;96929.75;5079852;28;20103;-59
2022/04/22 05:55:04;;;;;;;;;;;;;;;9.54;72.35;96930.97;5082497;28;20016;-60
2022/04/22 05:57:31;;;;;;;14.77;10.43;;;;;;;9.54;72.38;96936.16;5097046;28;19918;-60
2022/04/22 05:59:57;;;;;;;17.48;10.27;;;;;;;9.62;71.86;96933.50;5081734;28;20023;-61
2022/04/22 06:02:22;;;;;;;16.15;11.15;;;;;;;9.68;71.07;96925.00;5096410;28;20143;-61
2022/04/22 06:04:48;;;;;;;12.63;10.02;;;;;;;9.68;71.27;96922.38;5093792;28;20110;-61
2022/04/22 06:07:13;;;;;;;14.55;10.65;;;;;;;9.74;70.36;96931.25;5074626;28;20028;-59
2022/04/22 06:12:22;;;;;;;16.30;11.05;;;;;;;9.75;71.05;96931.06;5099214;28;20062;-60
2022/04/22 06:14:48;;;;;;;14.88;11.00;;;;;;;9.86;71.32;96923.81;5079154;28;20773;-58
2022/04/22 06:17:14;;;;;;;13.90;10.15;;;;;;;9.90;71.00;96927.66;5098611;28;20039;-59
2022/04/22 06:19:39;;;;;;;14.93;10.80;;;;;;;9.87;70.64;96933.19;5080058;28;20023;-59
2022/04/22 06:22:04;;;;;;;14.50;11.10;;;;;;;9.93;70.59;96925.50;5077390;28;20032;-59
2022/04/22 06:24:30;;;;;;;13.63;10.70;;;;;;;9.93;70.50;96933.28;5077356;28;20727;-59
2022/04/22 06:26:56;;;;;;;17.50;10.88;;;;;;;9.98;70.92;96933.56;5079180;28;20023;-60
2022/04/22 06:29:22;;;;;;;14.50;11.23;;;;;;;10.09;69.95;96928.88;5081324;28;20027;-60
2022/04/22 06:31:47;;;;;;;14.18;10.63;;;;;;;10.08;69.89;96925.47;5093200;28;20040;-62
2022/04/22 06:34:13;;;;;;;14.25;10.75;;;;;;;10.21;68.75;96922.22;5098156;28;20051;-59
2022/04/22 06:36:39;;;;;;;14.75;10.57;;;;;;;10.19;69.85;96927.59;5077977;28;20043;-59
2022/04/22 06:39:05;;;;;;;13.00;10.13;;;;;;;10.10;70.16;96920.91;5081485;28;20371;-59
2022/04/22 06:46:53;;;;;;;14.98;10.15;;;;;;;10.29;68.17;96926.47;5083114;28;20036;-60
2022/04/22 06:49:18;;;;;;;14.52;10.40;;;;;;;10.34;67.43;96918.97;5067007;28;20027;-61
2022/04/22 06:51:44;;;;;;;15.60;10.10;;;;;;;10.47;66.85;96921.69;5064654;28;20031;-59
2022/04/22 06:54:09;;;;;;;16.00;10.45;;;;;;;10.11;66.62;96870.56;5060158;28;20028;-60
2022/04/22 06:56:36;;;;;;;15.52;10.90;;;;;;;10.45;67.96;96907.28;5062121;28;20037;-59
2022/04/22 06:59:02;;;;;;;15.02;10.70;;;;;;;10.49;67.93;96918.91;5084090;28;20030;-60
2022/04/22 07:01:29;;;;;;;15.65;10.30;;;;;;;10.45;66.17;96921.09;5065699;28;20032;-61
2022/04/22 07:03:58;;;;;;;13.82;10.30;;;;;;;10.48;67.56;96930.31;5067440;28;20032;-59
2022/04/22 07:06:24;;;;;;;15.60;10.60;;;;;;;10.53;68.84;96927.94;5062372;28;20479;-59
2022/04/22 07:08:49;;;;;;;18.98;11.18;;;;;;;10.57;69.15;96930.00;5066281;28;20073;-59
2022/04/22 07:11:24;;;;;;;14.45;10.85;;;;;;;10.48;69.46;96928.53;5064857;28;20024;-62
2022/04/22 07:13:50;;;;;;;16.60;10.75;;;;;;;10.53;69.79;96931.38;5081094;28;20038;-59
2022/04/22 07:16:18;;;;;;;14.88;11.02;;;;;;;10.53;70.16;96915.78;5076642;28;20041;-60
2022/04/22 07:18:43;;;;;;;13.90;11.30;;;;;;;10.40;69.49;96918.22;5082603;28;20613;-60
2022/04/22 07:21:09;;;;;;;15.05;11.82;;;;;;;10.38;68.78;96922.81;5083511;28;20020;-60
2022/04/22 07:23:35;;;;;;;17.23;11.68;;;;;;;10.37;70.06;96921.22;5062434;28;20589;-60
2022/04/22 07:26:02;;;;;;;16.60;11.25;;;;;;;10.12;70.50;96874.75;5083362;28;20055;-60
2022/04/22 07:28:28;;;;;;;16.73;11.65;;;;;;;10.52;69.75;96915.97;5081650;28;20107;-59
2022/04/22 07:30:54;;;;;;;18.35;11.27;;;;;;;10.67;69.57;96918.50;5077785;28;20163;-59
2022/04/22 07:33:20;;;;;;;16.88;11.52;;;;;;;10.80;68.71;96918.59;5077824;28;20395;-62
2022/04/22 07:35:45;;;;;;;15.10;11.23;;;;;;;10.56;68.22;96880.81;5063450;28;20051;-58
2022/04/22 07:38:11;;;;;;;15.73;11.50;;;;;;;10.87;67.05;96922.06;5083091;28;20016;-59
2022/04/22 07:40:40;;;;;;;14.98;11.05;;;;;;;11.07;66.98;96926.63;5081790;28;20479;-59
2022/04/22 07:48:34;;;;;;;16.30;10.50;;;;;;;10.98;65.74;96918.16;5070797;28;20063;-60
2022/04/22 07:50:59;;;;;;;16.80;11.27;;;;;;;11.03;65.98;96917.59;5065725;28;20391;-60
2022/04/22 07:53:25;;;;;;;15.57;11.57;;;;;;;10.82;66.75;96877.63;5064039;28;20089;-61
2022/04/22 07:55:50;;;;;;;16.00;11.75;;;;;;;10.96;66.95;96914.94;5064720;28;20394;-60
2022/04/22 07:58:17;;;;;;;14.52;10.57;;;;;;;10.64;66.22;96872.06;5063963;28;20031;-59
2022/04/22 08:00:46;;;;;;;16.27;11.32;;;;;;;11.05;67.21;96913.00;5079737;28;20021;-60
2022/04/22 08:03:12;;;;;;;14.27;11.20;;;;;;;11.12;67.44;96919.84;5082751;28;20051;-59
2022/04/22 08:05:38;;;;;;;16.02;11.27;;;;;;;11.05;66.05;96913.81;5076509;28;20036;-60
2022/04/22 08:08:04;;;;;;;16.20;11.07;;;;;;;11.03;66.21;96915.78;5082078;28;20028;-60
2022/04/22 08:10:29;;;;;;;15.57;11.27;;;;;;;11.11;67.44;96913.03;5075948;28;20156;-60
2022/04/22 08:12:55;;;;;;;17.83;11.55;;;;;;;11.25;66.50;96913.16;5065577;28;20032;-60
2022/04/22 08:15:21;;;;;;;14.80;10.77;;;;;;;11.35;65.84;96914.41;5063060;28;20028;-60
2022/04/22 08:17:47;;;;;;;18.15;11.25;;;;;;;11.39;64.91;96904.44;5081213;28;20023;-59
2022/04/22 08:20:13;;;;;;;14.65;11.20;;;;;;;11.49;62.88;96910.06;5081919;28;20034;-62
2022/04/22 08:22:39;;;;;;;14.73;11.27;;;;;;;11.52;63.24;96906.31;5056624;28;20644;-59
2022/04/22 08:25:05;;;;;;;13.85;10.45;;;;;;;11.70;62.63;96903.16;5064889;28;20035;-61
2022/04/22 08:27:30;;;;;;;14.70;11.50;;;;;;;11.57;62.91;96890.88;5063997;28;20097;-60
2022/04/22 08:29:56;;;;;;;14.82;11.50;;;;;;;11.62;65.18;96900.72;5065536;28;20459;-61
2022/04/22 08:32:22;;;;;;;19.75;11.65;;;;;;;11.63;64.67;96899.75;5080250;28;20028;-59
2022/04/22 08:34:47;;;;;;;18.08;11.52;;;;;;;11.44;65.91;96896.81;5080116;28;21480;-61
2022/04/22 08:37:13;;;;;;;17.55;11.32;;;;;;;11.38;66.96;96897.59;5081901;28;20028;-59
2022/04/22 08:39:38;;;;;;;14.35;11.27;;;;;;;11.34;64.14;96889.38;5077668;28;20047;-59
2022/04/22 08:42:04;;;;;;;13.63;10.65;;;;;;;11.33;66.16;96879.16;5081926;28;20055;-58
2022/04/22 08:44:30;;;;;;;15.63;11.07;;;;;;;11.32;64.49;96873.16;5063708;28;20040;-59
2022/04/22 08:52:31;;;;;;;15.55;11.05;;;;;;;11.74;63.10;96870.56;5080540;28;20038;-62
2022/04/22 08:54:58;;;;;;;14.10;10.82;;;;;;;11.42;64.29;96825.94;5065200;28;20140;-58
2022/04/22 08:57:24;;;;;;;16.40;11.40;;;;;;;11.69;65.05;96865.91;5062894;28;20040;-59
2022/04/22 08:59:49;;;;;;;18.45;11.23;;;;;;;11.65;63.54;96869.13;5080203;28;20111;-61
2022/04/22 09:02:19;;;;;;;15.50;10.88;;;;;;;11.78;64.61;96870.97;5079132;28;20093;-60
2022/04/22 09:04:47;;;;;;;17.20;12.07;;;;;;;11.45;64.89;96846.41;5079065;28;20772;-61
2022/04/22 09:07:14;;;;;;;13.52;11.10;;;;;;;11.62;65.64;96872.09;5056976;28;20482;-61
2022/04/22 09:09:40;;;;;;;16.75;10.50;;;;;;;11.66;64.58;96871.53;5060109;28;20391;-59
2022/04/22 09:12:11;;;;;;;15.38;11.13;;;;;;;11.72;64.30;96869.94;5083406;28;20436;-61
2022/04/22 09:14:44;;;;;;;16.73;10.80;;;;;;;11.68;63.66;96866.09;5080796;28;20047;-62
2022/04/22 09:17:10;;;;;;;14.68;10.60;;;;;;;11.78;62.29;96871.75;5081074;28;20031;-59
2022/04/22 09:19:36;;;;;;;13.75;10.48;;;;;;;12.02;63.66;96873.06;5063219;28;20036;-59
2022/04/22 09:22:01;;;;;;;15.63;10.73;;;;;;;11.78;62.39;96848.31;5077048;28;20094;-59
2022/04/22 09:24:27;;;;;;;16.58;10.20;;;;;;;12.00;60.71;96863.84;5059740;28;20811;-60
2022/04/22 09:27:13;;;;;;;14.95;10.45;;;;;;;12.06;60.20;96876.88;5061612;28;20032;-60
2022/04/22 09:29:56;;;;;;;15.50;10.15;;;;;;;12.07;59.75;96873.28;5080626;28;20055;-61
2022/04/22 09:32:27;;;;;;;13.25;9.60;;;;;;;12.15;59.50;96866.28;5063624;28;20104;-60
2022/04/22 09:34:56;;;;;;;14.07;9.77;;;;;;;12.14;58.95;96828.19;5079699;28;20039;-60
2022/04/22 09:42:55;;;;;;;16.55;10.48;;;;;;;12.62;58.35;96859.34;5080134;28;20465;-61
2022/04/22 09:45:21;;;;;;;15.85;10.02;;;;;;;12.49;58.27;96845.28;5075025;28;20113;-61
2022/04/22 09:47:58;;;;;;;13.82;9.13;;;;;;;12.64;58.63;96860.72;5057862;28;20148;-58
2022/04/22 09:50:53;;;;;;;15.50;10.00;;;;;;;12.79;58.59;96859.72;5081091;28;20089;-60
2022/04/22 09:53:33;;;;;;;14.90;9.15;;;;;;;13.08;58.07;96850.66;5062892;28;20430;-60
2022/04/22 09:55:58;;;;;;;15.95;9.80;;;;;;;13.27;57.84;96854.25;5076807;28;20028;-59
2022/04/22 09:58:27;;;;;;;12.48;10.18;;;;;;;13.44;56.43;96828.53;5081055;28;20060;-59
2022/04/22 10:01:00;;;;;;;15.27;10.40;;;;;;;13.67;56.67;96851.53;5076713;28;20032;-59
2022/04/22 10:03:31;;;;;;;14.77;9.73;;;;;;;13.72;56.53;96836.03;5076099;28;20277;-60
2022/04/22 10:05:57;;;;;;;14.77;9.85;;;;;;;14.00;55.54;96843.56;5062939;28;20107;-59
2022/04/22 10:08:23;;;;;;;12.63;9.10;;;;;;;14.14;55.00;96848.69;5080858;28;20048;-62
2022/04/22 10:10:51;;;;;;;14.15;9.50;;;;;;;14.13;54.38;96829.59;5078754;28;20442;-61
2022/04/22 10:13:18;;;;;;;12.05;9.05;;;;;;;14.36;54.84;96844.72;5059806;28;20066;-60
2022/04/22 10:15:45;;;;;;;12.70;8.32;;;;;;;14.56;53.59;96841.16;5063287;28;20032;-60
2022/04/22 10:18:13;;;;;;;11.15;7.05;;;;;;;14.82;52.53;96834.16;5061944;28;20023;-60
2022/04/22 10:20:39;;;;;;;11.05;6.05;;;;;;;14.95;51.43;96839.28;5066129;28;20063;-60
2022/04/22 10:23:05;;;;;;;9.73;6.30;;;;;;;15.03;50.90;96840.81;5083143;28;20032;-60
2022/04/22 10:25:30;;;;;;;10.45;7.20;;;;;;;15.16;49.03;96843.28;5065261;28;20081;-61
2022/04/22 10:27:57;;;;;;;11.15;6.53;;;;;;;15.35;48.71;96829.19;5067021;28;20028;-61
2022/04/22 10:30:23;;;;;;;10.82;6.43;;;;;;;15.37;48.79;96829.78;5077630;28;20041;-60
2022/04/22 10:32:48;;;;;;;10.10;7.18;;;;;;;15.35;49.52;96838.84;5084350;28;20030;-60
2022/04/22 10:35:14;;;;;;;11.65;7.22;;;;;;;15.44;49.15;96834.94;5081871;28;20028;-61
2022/04/22 10:37:41;;;;;;;12.18;6.82;;;;;;;15.57;48.62;96836.63;5084824;28;20107;-60
2022/04/22 10:40:17;;;;;;;9.27;4.82;;;;;;;15.44;47.57;96806.13;5083910;28;20016;-59
2022/04/22 10:42:43;;;;;;;9.13;5.70;;;;;;;15.60;48.43;96836.16;5081911;28;20027;-61
2022/04/22 10:47:54;;;;;;;7.82;4.60;;;;;;;15.63;48.39;96837.56;5079298;28;20117;-60
2022/04/22 10:50:34;;;;;;;7.05;4.40;;;;;;;15.69;48.33;96844.53;5083924;28;20028;-61
2022/04/22 10:53:05;;;;;;;10.02;5.32;;;;;;;15.71;48.41;96839.84;5082650;28;20510;-60
2022/04/22 10:55:37;;;;;;;8.00;5.10;;;;;;;15.37;49.01;96797.56;5066399;28;20035;-61
2022/04/22 10:58:23;;;;;;;9.80;6.25;;;;;;;15.66;48.88;96850.19;5065680;28;20039;-61
2022/04/22 11:00:54;;;;;;;9.48;6.28;;;;;;;15.60;48.76;96845.84;5082250;28;20016;-60
2022/04/22 11:03:37;;;;;;;9.38;6.30;;;;;;;15.71;49.08;96843.25;5066792;28;20055;-59
2022/04/22 11:06:06;;;;;;;10.65;5.72;;;;;;;15.47;48.99;96795.19;5079757;28;20103;-61
2022/04/22 11:08:38;;;;;;;13.33;7.00;;;;;;;15.49;48.97;96801.03;5066562;28;20459;-61
2022/04/22 11:11:11;;;;;;;11.68;7.75;;;;;;;16.10;47.34;96851.69;5080646;28;20028;-60
2022/04/22 11:13:40;;;;;;;11.10;7.15;;;;;;;15.98;47.87;96850.03;5066398;28;20092;-59
2022/04/22 11:16:06;;;;;;;10.68;7.20;;;;;;;15.86;48.22;96853.41;5066301;28;20116;-60
2022/04/22 11:18:33;;;;;;;12.65;8.65;;;;;;;15.96;49.24;96852.88;5081900;28;20440;-60
2022/04/22 11:21:02;;;;;;;14.38;9.32;;;;;;;15.68;49.20;96807.06;5083412;28;20089;-61
2022/04/22 11:23:38;;;;;;;;;;;;;;;16.09;49.45;96849.28;5081511;28;20136;-61
2022/04/22 11:26:04;;;;;;;19.65;9.98;;;;;;;15.88;49.86;96833.03;5063278;28;19912;-60
2022/04/22 11:28:37;;;;;;;14.07;9.77;;;;;;;16.11;50.30;96857.72;5065800;28;20035;-58
2022/04/22 11:31:08;;;;;;;12.65;9.75;;;;;;;16.08;49.28;96853.72;5064859;28;20032;-60
2022/04/22 11:33:53;;;;;;;14.93;9.38;;;;;;;16.12;49.50;96862.75;5082968;28;20024;-62
2022/04/22 11:36:19;;;;;;;12.00;9.23;;;;;;;16.22;49.59;96864.81;5060994;28;20020;-60
2022/04/22 11:38:52;;;;;;;14.55;10.60;;;;;;;16.21;48.89;96865.84;5080637;28;20117;-60
2022/04/22 11:41:18;;;;;;;14.60;9.77;;;;;;;15.94;49.85;96815.63;5066005;28;20113;-59
2022/04/22 11:43:46;;;;;;;19.25;13.32;;;;;;;16.03;50.66;96860.66;5078271;28;20051;-61
2022/04/22 11:46:12;;;;;;;15.48;12.38;;;;;;;16.29;50.72;96875.22;5082350;28;20019;-59
2022/04/22 11:48:49;;;;;;;18.60;13.65;;;;;;;16.21;50.22;96870.28;5055737;28;20032;-61
2022/04/22 11:51:16;;;;;;;17.65;13.43;;;;;;;15.97;51.33;96820.38;5082857;28;20106;-60
2022/04/22 11:53:46;;;;;;;17.85;14.07;;;;;;;16.23;51.28;96870.88;5073223;28;20054;-60
2022/04/22 11:56:15;;;;;;;16.98;13.50;;;;;;;16.31;50.71;96883.66;5080554;28;20020;-59
2022/04/22 11:58:41;;;;;;;20.23;13.90;;;;;;;16.26;51.36;96879.09;5081806;28;20434;-60
2022/04/22 12:06:38;;;;;;;17.95;12.98;;;;;;;16.36;51.75;96878.56;5069195;28;20093;-61
2022/04/22 12:09:05;;;;;;;13.18;11.10;;;;;;;16.17;51.53;96885.66;5082175;28;20031;-60
2022/04/22 12:11:38;;;;;;;15.05;10.98;;;;;;;16.23;52.05;96878.75;5083495;28;20024;-60
2022/04/22 12:14:03;;;;;;;15.80;11.30;;;;;;;16.37;51.08;96887.22;5062456;28;20036;-60
2022/04/22 12:16:29;;;;;;;14.43;10.15;;;;;;;16.40;50.98;96876.28;5081972;28;20032;-62
2022/04/22 12:18:55;;;;;;;20.27;10.77;;;;;;;16.32;50.99;96880.81;5081153;28;20032;-60
2022/04/22 12:21:21;;;;;;;12.63;10.75;;;;;;;16.33;50.98;96889.47;5062701;28;20074;-60
2022/04/22 12:23:49;;;;;;;14.48;11.13;;;;;;;16.31;50.30;96889.69;5065056;28;20353;-60
2022/04/22 12:26:23;;;;;;;14.27;10.80;;;;;;;16.36;50.83;96889.03;5077322;28;20031;-60
2022/04/22 12:29:08;;;;;;;12.82;10.65;;;;;;;16.37;50.54;96897.72;5082000;28;20082;-60
2022/04/22 12:31:34;;;;;;;16.10;11.48;;;;;;;16.11;50.18;96848.03;5081098;28;20573;-62
2022/04/22 12:34:05;;;;;;;17.70;10.65;;;;;;;16.43;50.72;96892.38;5063475;28;20081;-60
2022/04/22 12:36:52;;;;;;;14.27;11.57;;;;;;;16.64;51.10;96896.28;5076930;28;20089;-62
2022/04/22 12:39:36;;;;;;;14.88;11.18;;;;;;;16.25;51.03;96840.00;5078315;28;20038;-62
2022/04/22 12:42:02;;;;;;;17.15;11.20;;;;;;;16.54;51.20;96882.94;5081449;28;20059;-60
2022/04/22 12:44:28;;;;;;;15.80;12.38;;;;;;;16.48;51.77;96897.75;5061243;28;20058;-62
2022/04/22 12:52:55;;;;;;;18.23;12.45;;;;;;;16.40;51.68;96882.31;5057351;28;20399;-60
2022/04/22 12:55:20;;;;;;;15.77;12.18;;;;;;;16.39;53.01;96893.03;5078460;28;20039;-60
2022/04/22 12:57:59;;;;;;;17.90;12.65;;;;;;;16.39;52.77;96896.47;5082984;28;20032;-60
2022/04/22 13:00:26;;;;;;;16.58;13.02;;;;;;;16.21;53.42;96865.03;5077956;28;20058;-61
2022/04/22 13:02:52;;;;;;;17.95;13.57;;;;;;;16.27;53.27;96899.03;5064056;28;20111;-60
2022/04/22 13:05:19;;;;;;;18.25;14.15;;;;;;;16.30;52.81;96903.03;5080384;28;20221;-60
2022/04/22 13:07:45;;;;;;;17.95;13.10;;;;;;;16.31;53.83;96904.66;5063223;28;20488;-60
2022/04/22 13:10:15;;;;;;;17.88;12.98;;;;;;;16.43;53.55;96902.88;5080811;28;20028;-61
2022/04/22 13:12:41;;;;;;;19.20;13.02;;;;;;;16.34;52.82;96899.75;5065133;28;20115;-61
2022/04/22 13:15:09;;;;;;;15.23;12.57;;;;;;;16.04;53.30;96864.88;5073539;28;20028;-60
2022/04/22 13:17:43;;;;;;;16.02;12.88;;;;;;;16.14;53.82;96905.28;5080663;28;20023;-60
2022/04/22 13:20:12;;;;;;;15.60;12.90;;;;;;;16.23;54.43;96910.22;5065219;28;20078;-60
2022/04/22 13:22:37;;;;;;;17.13;12.98;;;;;;;15.94;54.42;96870.66;5079470;28;20024;-62
2022/04/22 13:25:03;;;;;;;17.42;13.90;;;;;;;16.13;55.55;96915.97;5081267;28;20627;-59
2022/04/22 13:27:29;;;;;;;24.00;15.10;;;;;;;15.98;55.87;96912.94;5062558;28;20394;-60
2022/04/22 13:29:54;;;;;;;19.02;14.15;;;;;;;15.98;56.05;96905.88;5081174;28;20024;-60
2022/04/22 13:32:20;;;;;;;17.27;13.90;;;;;;;15.94;55.76;96884.56;5080228;28;20064;-62
2022/04/22 13:34:45;;;;;;;18.58;13.68;;;;;;;16.12;55.69;96922.25;5063187;28;20495;-59
2022/04/22 13:37:11;;;;;;;15.50;13.15;;;;;;;15.93;55.79;96909.19;5080234;28;20043;-60
2022/04/22 13:39:36;;;;;;;18.13;13.23;;;;;;;16.02;55.87;96928.00;5058827;28;20055;-62
2022/04/22 13:42:02;;;;;;;17.75;13.23;;;;;;;15.85;56.88;96917.31;5063173;28;20071;-60
2022/04/22 13:52:40;;;;;;;13.30;9.50;;;;;;;15.85;56.25;96924.38;5080665;28;20216;-62
2022/04/22 13:55:05;;;;;;;12.30;9.27;;;;;;;15.61;56.36;96873.66;5084840;28;20028;-60
2022/04/22 13:57:31;;;;;;;11.30;9.15;;;;;;;15.98;55.54;96928.69;5060975;28;20082;-63
2022/04/22 13:59:56;;;;;;;11.25;8.80;;;;;;;16.06;54.98;96923.94;5067610;28;20020;-60
2022/04/22 14:02:22;;;;;;;12.40;8.55;;;;;;;15.95;54.34;96869.63;5083424;28;20035;-60
2022/04/22 14:04:48;;;;;;;12.02;8.75;;;;;;;16.22;54.38;96919.09;5082959;28;20489;-62
2022/04/22 14:07:13;;;;;;;10.98;6.82;;;;;;;16.42;53.38;96917.00;5084622;28;20549;-60
2022/04/22 14:09:40;;;;;;;11.00;7.10;;;;;;;16.45;52.15;96913.16;5082290;28;20067;-60
2022/04/22 14:12:06;;;;;;;10.20;7.00;;;;;;;16.28;53.52;96918.19;5084570;28;20032;-60
2022/04/22 14:14:32;;;;;;;8.98;6.95;;;;;;;15.99;53.16;96869.97;5064919;28;20256;-61
2022/04/22 14:16:57;;;;;;;8.57;6.50;;;;;;;16.34;53.71;96927.81;5066171;28;20583;-62
2022/04/22 14:19:24;;;;;;;9.35;6.18;;;;;;;16.27;53.00;96924.47;5062342;28;20028;-59
2022/04/22 14:21:50;;;;;;;10.40;5.95;;;;;;;16.23;53.40;96920.72;5079217;28;20020;-60
2022/04/22 14:24:16;;;;;;;9.77;6.20;;;;;;;16.21;53.86;96928.78;5068528;28;20138;-61
2022/04/22 14:26:41;;;;;;;10.35;6.45;;;;;;;16.23;53.84;96929.38;5065553;28;20518;-61
2022/04/22 14:29:07;;;;;;;11.00;5.68;;;;;;;16.29;53.72;96927.69;5085069;28;20808;-59
2022/04/22 14:31:32;;;;;;;9.20;5.93;;;;;;;16.28;53.39;96934.75;5081490;28;20038;-60
2022/04/22 14:33:58;;;;;;;9.10;6.13;;;;;;;15.94;53.59;96886.38;5066965;28;20032;-61
2022/04/22 14:36:23;;;;;;;10.98;5.95;;;;;;;16.11;54.00;96933.75;5062129;28;20434;-59
2022/04/22 14:38:49;;;;;;;12.50;6.25;;;;;;;15.98;54.38;96937.34;5079559;28;20748;-62
2022/04/22 14:41:17;;;;;;;9.23;6.22;;;;;;;16.04;54.22;96948.75;5084500;28;20482;-60
2022/04/22 14:43:43;;;;;;;9.00;6.13;;;;;;;15.63;54.66;96900.44;5079891;28;20107;-60
2022/04/22 14:46:08;;;;;;;9.63;6.40;;;;;;;15.74;54.08;96887.41;5084102;28;20403;-59
2022/04/22 14:48:34;;;;;;;9.70;5.97;;;;;;;16.12;54.12;96943.22;5080199;28;20028;-59
2022/04/22 14:51:00;;;;;;;8.68;5.90;;;;;;;16.17;54.40;96948.59;5065583;28;20094;-60
2022/04/22 14:53:25;;;;;;;8.82;6.10;;;;;;;16.11;54.27;96947.66;5061510;28;20082;-60
2022/04/22 14:55:51;;;;;;;8.30;6.22;;;;;;;16.04;54.22;96948.75;5067149;28;20024;-60
2022/04/22 14:58:17;;;;;;;9.48;6.00;;;;;;;16.00;53.91;96950.22;5059871;28;20489;-62
2022/04/22 15:00:42;;;;;;;9.15;5.47;;;;;;;16.03;53.69;96949.78;5061112;28;20400;-61
2022/04/22 15:03:08;;;;;;;9.63;5.45;;;;;;;16.00;53.60;96958.88;5083332;28;20028;-62
2022/04/22 15:05:34;;;;;;;9.25;5.60;;;;;;;15.93;53.46;96952.91;5083176;28;20043;-61
2022/04/22 15:08:00;;;;;;;9.18;5.47;;;;;;;15.83;54.06;96960.50;5085749;28;20024;-62
2022/04/22 15:10:26;;;;;;;14.10;5.60;;;;;;;15.81;53.94;96952.03;5063218;28;20110;-61
2022/04/22 15:12:51;;;;;;;7.25;5.38;;;;;;;15.86;53.70;96963.50;5082523;28;20032;-61
2022/04/22 15:15:17;;;;;;;9.07;5.45;;;;;;;15.58;53.66;96922.81;5064204;28;20020;-60
2022/04/22 15:25:56;;;;;;;7.20;5.18;;;;;;;15.86;54.10;96960.03;5081348;28;20039;-60
2022/04/22 15:28:23;;;;;;;8.65;5.07;;;;;;;15.85;53.85;96963.69;5082594;28;20081;-61
2022/04/22 15:31:08;;;;;;;7.82;4.60;;;;;;;15.84;54.06;96975.19;5075483;28;20143;-61
2022/04/22 15:33:34;;;;;;;7.65;4.88;;;;;;;15.78;54.36;96974.25;5081394;28;20071;-60
2022/04/22 15:36:05;;;;;;;9.15;5.10;;;;;;;15.51;53.85;96937.00;5064599;28;20020;-60
2022/04/22 15:38:35;;;;;;;9.32;4.57;;;;;;;15.76;53.55;96974.47;5064519;28;20101;-60
2022/04/22 15:41:00;;;;;;;8.20;4.30;;;;;;;15.71;53.78;96973.47;5081794;28;20032;-60
2022/04/22 15:43:26;;;;;;;8.98;4.22;;;;;;;15.69;54.18;96975.53;5065607;28;20036;-61
2022/04/22 15:45:51;;;;;;;7.38;4.50;;;;;;;15.61;54.75;96979.22;5082073;28;20473;-61
2022/04/22 15:48:17;;;;;;;7.55;4.43;;;;;;;15.62;55.14;96983.44;5078366;28;20057;-59
2022/04/22 15:50:42;;;;;;;8.70;4.50;;;;;;;15.65;54.77;96984.84;5065384;28;20086;-61
2022/04/22 15:53:08;;;;;;;7.10;4.35;;;;;;;15.55;54.85;96985.31;5063920;28;20100;-61
2022/04/22 15:55:33;;;;;;;10.02;4.38;;;;;;;15.62;55.02;96988.69;5065640;28;20017;-60
2022/04/22 15:57:59;;;;;;;6.65;4.22;;;;;;;15.33;55.04;96953.50;5064358;28;20035;-61
2022/04/22 16:00:24;;;;;;;7.80;4.15;;;;;;;15.66;54.87;96991.66;5078598;28;20020;-61
2022/04/22 16:02:50;;;;;;;7.82;3.75;;;;;;;15.59;53.70;96991.75;5079640;28;20062;-61
2022/04/22 16:05:16;;;;;;;8.75;3.90;;;;;;;15.73;54.00;96995.03;5077157;28;20139;-61
2022/04/22 16:07:42;;;;;;;7.78;4.03;;;;;;;15.42;54.19;96954.81;5079112;28;20063;-60
2022/04/22 16:10:08;;;;;;;8.57;3.33;;;;;;;15.68;53.99;97000.94;5079291;28;20458;-62
2022/04/22 16:15:18;;;;;;;7.15;3.38;;;;;;;15.60;53.58;97005.63;5075595;28;20040;-62
2022/04/22 16:17:52;;;;;;;6.00;3.45;;;;;;;15.22;53.62;96967.28;5078525;28;20474;-59
2022/04/22 16:20:17;;;;;;;6.45;3.50;;;;;;;15.48;53.86;97008.97;5062164;28;20079;-61
2022/04/22 16:22:44;;;;;;;5.88;3.00;;;;;;;15.41;53.83;97007.44;5064049;28;20864;-64
2022/04/22 16:25:11;;;;;;;6.43;3.35;;;;;;;15.32;55.20;97015.53;5073944;28;20118;-61
2022/04/22 16:27:36;;;;;;;7.75;3.80;;;;;;;15.08;55.74;96975.25;5079474;28;20155;-60
2022/04/22 16:30:04;;;;;;;6.35;4.03;;;;;;;15.32;55.82;97022.59;5082377;28;20131;-60
2022/04/22 16:32:29;;;;;;;6.30;3.95;;;;;;;15.29;56.16;97029.03;5060802;28;20765;-60
2022/04/22 16:34:55;;;;;;;8.00;4.30;;;;;;;15.22;56.34;97023.06;5065229;28;20106;-59
2022/04/22 16:37:20;;;;;;;7.20;4.43;;;;;;;15.14;56.98;97039.84;5080518;28;20043;-60
2022/04/22 16:39:46;;;;;;;6.47;4.32;;;;;;;15.13;56.83;97040.88;5059923;28;20031;-62
2022/04/22 16:42:11;;;;;;;7.00;4.10;;;;;;;14.79;57.16;96998.38;5065074;28;20124;-61
2022/04/22 16:44:37;;;;;;;7.30;3.88;;;;;;;15.02;57.04;97038.91;5063618;28;20751;-61
2022/04/22 16:47:04;;;;;;;6.82;4.32;;;;;;;14.78;56.57;96994.19;5064072;28;20032;-60
2022/04/22 16:49:29;;;;;;;6.88;4.22;;;;;;;15.09;56.85;97057.19;5081899;28;20081;-60
2022/04/22 16:51:55;;;;;;;6.80;4.30;;;;;;;14.98;57.12;97059.47;5062140;28;20032;-59
2022/04/22 16:54:21;;;;;;;8.48;4.63;;;;;;;15.01;57.17;97066.09;5082241;28;20020;-60
2022/04/22 16:56:46;;;;;;;6.50;4.43;;;;;;;14.90;57.51;97062.34;5080741;28;20085;-59
2022/04/22 16:59:12;;;;;;;7.07;4.90;;;;;;;14.82;57.41;97057.34;5083089;28;20829;-63
